• Join FlightAware (Why Join?)
  • Login
  • US Flag 
12:21PM EDT


 

Airport Tracker/Info


-or-


 

Live Flight TrackerFlight Track Log ✈ SWA1834 ✈ 12-Oct-2013 ✈ KMDW - KDEN

Flight Track Log - Related Links

Times and Time Zones

All times are in EDT time to prevent confusion due to time zone crossing. See the SWA1834 flight status page for this flight to view local times or setup timezone preferences in your user account.

Time Position Orientation Groundspeed Altitude Reporting Facility
EDT Latitude Longitude Course Direction KTS MPH feet Rate Location/Type
08:01PM 41.7833 -87.8333 251° West 191 220 3,900  Level Chicago TRACON
08:02PM 41.7636 -87.9031 249° West 219 252 5,700 2,460 Climbing Chicago Center
08:03PM 41.7625 -87.9967 269° West 251 289 8,900 2,220 Climbing Chicago Center
08:04PM 41.7606 -88.0936 268° West 261 300 10,300 1,500 Climbing Chicago Center
08:05PM 41.7600 -88.1925 270° West 266 306 12,000 2,340 Climbing Chicago Center
08:06PM 41.7614 -88.3267 271° West 300 345 15,100 3,240 Climbing Chicago Center
08:07PM 41.7614 -88.4450 270° West 319 367 18,700 2,880 Climbing Chicago Center
08:08PM 41.7622 -88.5667 271° West 325 374 21,000 2,400 Climbing Chicago Center
08:09PM 41.7611 -88.7053 269° West 361 415 23,700 2,520 Climbing Chicago Center
08:10PM 41.7569 -88.8442 268° West 375 432 26,200 2,280 Climbing Chicago Center
08:11PM 41.7447 -88.9853 263° West 382 440 28,400 1,980 Climbing Chicago Center
08:12PM 41.7336 -89.1322 264° West 393 452 30,300 2,040 Climbing Chicago Center
08:13PM 41.7228 -89.2783 264° West 399 459 32,600 2,160 Climbing Chicago Center
08:14PM 41.7078 -89.4506 263° West 391 450 34,800 1,740 Climbing Chicago Center
08:15PM 41.6972 -89.5872 264° West 393 452 36,200 1,500 Climbing Chicago Center
08:16PM 41.6853 -89.7328 264° West 395 455 37,900 1,380 Climbing Chicago Center
08:17PM 41.6736 -89.8753 264° West 390 449 39,100 1,020 Climbing Chicago Center
08:18PM 41.6617 -90.0178 264° West 389 448 40,000 420 Climbing Chicago Center
08:19PM 41.6489 -90.1617 263° West 391 450 40,000  Level Chicago Center
08:20PM 41.6347 -90.3083 263° West 401 461 40,000  Level Chicago Center
08:21PM 41.6217 -90.4494 263° West 390 449 40,000  Level Chicago Center
08:22PM 41.6086 -90.5892 263° West 383 441 40,000  Level Chicago Center
08:23PM 41.5944 -90.7447 263° West 381 438 40,000  Level Chicago Center
08:24PM 41.5811 -90.8844 263° West 383 441 40,000  Level Chicago Center
08:25PM 41.5681 -91.0222 263° West 378 435 40,000  Level Chicago Center
08:26PM 41.5542 -91.1622 262° West 380 437 40,000  Level Chicago Center
08:27PM 41.5408 -91.3025 263° West 383 441 40,000  Level Chicago Center
08:28PM 41.5239 -91.4706 262° West 385 443 40,000  Level Chicago Center
08:29PM 41.5100 -91.6100 262° West 382 440 40,000  Level Chicago Center
08:30PM 41.4956 -91.7508 262° West 386 444 40,000  Level Chicago Center
08:31PM 41.4814 -91.8897 262° West 383 441 40,000  Level Chicago Center
08:32PM 41.4672 -92.0272 262° West 381 438 40,000  Level Chicago Center
08:33PM 41.4519 -92.1681 262° West 383 441 40,000  Level Chicago Center
08:34PM 41.4367 -92.3056 262° West 379 436 40,000  Level Chicago Center
08:35PM 41.4200 -92.4597 262° West 383 441 40,000  Level Chicago Center
08:36PM 41.4047 -92.5997 262° West 385 443 40,000  Level Chicago Center
08:37PM 41.3961 -92.6842 262° West 384 442 40,000  Level Minneapolis Center
08:38PM 41.3797 -92.8239 261° West 385 443 40,000  Level Minneapolis Center
08:39PM 41.3636 -92.9619 261° West 384 442 40,000  Level Minneapolis Center
08:40PM 41.3481 -93.0994 261° West 382 440 40,000  Level Minneapolis Center
08:41PM 41.3319 -93.2375 261° West 381 438 40,000  Level Minneapolis Center
08:42PM 41.3164 -93.3747 261° West 381 438 40,000  Level Minneapolis Center
08:43PM 41.2969 -93.5386 261° West 379 436 40,000  Level Minneapolis Center
08:44PM 41.2814 -93.6725 261° West 373 429 40,000  Level Minneapolis Center
08:45PM 41.2656 -93.8094 261° West 376 433 40,000  Level Minneapolis Center
08:46PM 41.2492 -93.9458 261° West 378 435 40,000  Level Minneapolis Center
08:47PM 41.2325 -94.0828 261° West 379 436 40,000  Level Minneapolis Center
08:48PM 41.2136 -94.2206 260° West 383 441 40,000  Level Minneapolis Center
08:49PM 41.1933 -94.3875 261° West 382 440 40,000  Level Minneapolis Center
08:50PM 41.1750 -94.5278 260° West 383 441 40,000  Level Minneapolis Center
08:51PM 41.1583 -94.6703 261° West 389 448 40,000  Level Minneapolis Center
08:52PM 41.1389 -94.8108 260° West 389 448 40,000  Level Minneapolis Center
08:53PM 41.1194 -94.9517 260° West 389 448 40,000  Level Minneapolis Center
08:54PM 41.1017 -95.0939 261° West 390 449 40,000  Level Minneapolis Center
08:55PM 41.0819 -95.2353 260° West 390 449 40,000  Level Minneapolis Center
08:56PM 41.0625 -95.3758 260° West 389 448 40,000  Level Minneapolis Center
08:57PM 41.0422 -95.5172 259° West 388 447 40,000  Level Minneapolis Center
08:58PM 41.0231 -95.6575 260° West 387 445 40,000  Level Minneapolis Center
08:59PM 40.9994 -95.8250 259° West 384 442 40,000  Level Minneapolis Center
09:00PM 40.9789 -95.9681 259° West 388 447 40,000  Level Minneapolis Center
09:01PM 40.9606 -96.1089 260° West 389 448 40,000  Level Minneapolis Center
09:02PM 40.9403 -96.2511 259° West 390 449 40,000  Level Minneapolis Center
09:03PM 40.9183 -96.3933 259° West 391 450 40,000  Level Minneapolis Center
09:04PM 40.8978 -96.5361 259° West 393 452 40,000  Level Minneapolis Center
09:06PM 40.8772 -96.6781 259° West 393 452 40,000  Level Minneapolis Center
09:07PM 40.8564 -96.8208 259° West 394 453 40,000  Level Minneapolis Center
09:08PM 40.8350 -96.9642 259° West 396 456 40,000  Level Minneapolis Center
09:09PM 40.8131 -97.1064 259° West 395 455 40,000  Level Minneapolis Center
09:10PM 40.7908 -97.2500 258° West 398 458 40,000  Level Minneapolis Center
09:11PM 40.7703 -97.3906 259° West 396 456 40,000  Level Minneapolis Center
09:12PM 40.7475 -97.5342 258° West 397 457 40,000  Level Minneapolis Center
09:13PM 40.7197 -97.7056 258° West 398 458 40,000  Level Minneapolis Center
09:14PM 40.6978 -97.8483 259° West 398 458 40,000  Level Minneapolis Center
09:15PM 40.6747 -97.9906 258° West 397 457 40,000  Level Minneapolis Center
09:16PM 40.6522 -98.1350 258° West 398 458 40,000  Level Minneapolis Center
09:17PM 40.6289 -98.2772 258° West 398 458 40,000  Level Minneapolis Center
09:18PM 40.6069 -98.4203 259° West 397 457 40,000  Level Minneapolis Center
09:19PM 40.6164 -98.5656 275° West 395 455 40,000  Level Minneapolis Center
09:20PM 40.6292 -98.7111 277° West 397 457 40,000  Level Minneapolis Center
09:21PM 40.6425 -98.8578 277° West 400 460 40,000  Level Minneapolis Center
09:22PM 40.6558 -99.0036 277° West 399 459 40,000  Level Minneapolis Center
09:23PM 40.6681 -99.1489 276° West 398 458 40,000  Level Minneapolis Center
09:24PM 40.6800 -99.2953 276° West 398 458 40,000  Level Minneapolis Center
09:25PM 40.6897 -99.4406 275° West 397 457 40,000  Level Minneapolis Center
09:26PM 40.6808 -99.5833 265° West 391 450 40,000  Level Minneapolis Center
09:27PM 40.6728 -99.7264 266° West 391 450 40,000  Level Minneapolis Center
09:28PM 40.6650 -99.8697 266° West 391 450 40,000  Level Minneapolis Center
09:29PM 40.6575 -100.0128 266° West 391 450 40,000  Level Minneapolis Center
09:30PM 40.6483 -100.1547 265° West 390 449 40,000  Level Minneapolis Center
09:31PM 40.6411 -100.2989 266° West 391 450 40,000  Level Minneapolis Center
09:32PM 40.6331 -100.4411 266° West 391 450 40,000  Level Minneapolis Center
09:33PM 40.6253 -100.5819 266° West 389 448 40,000  Level Minneapolis Center
09:34PM 40.6075 -100.8067 264° West 389 448 40,000  Level Denver Center
09:35PM 40.5981 -100.9431 265° West 387 445 40,000  Level Denver Center
09:36PM 40.5883 -101.0994 265° West 382 440 40,000  Level Denver Center
09:37PM 40.5789 -101.2336 265° West 383 441 40,000  Level Denver Center
09:39PM 40.5700 -101.3664 265° West 382 440 40,000 -180 Level Denver Center
09:40PM 40.5592 -101.5208 265° West 380 437 39,700 -600 Descending Denver Center
09:41PM 40.5494 -101.6539 265° West 381 438 38,800 -960 Descending Denver Center
09:42PM 40.5406 -101.7850 265° West 377 434 37,800 -1,020 Descending Denver Center
09:43PM 40.5292 -101.9383 264° West 378 435 36,800 -960 Descending Denver Center
09:44PM 40.5192 -102.0694 264° West 377 434 35,900 -1,020 Descending Denver Center
09:45PM 40.5069 -102.2258 264° West 383 441 34,800 -1,020 Descending Denver Center
09:46PM 40.4889 -102.3564 260° West 382 440 33,900 -900 Descending Denver Center
09:47PM 40.4617 -102.4853 255° West 382 440 33,000 -1,020 Descending Denver Center
09:48PM 40.4317 -102.6358 255° West 382 440 31,900 -1,020 Descending Denver Center
09:49PM 40.4078 -102.7694 257° West 386 444 31,000 -960 Descending Denver Center
09:50PM 40.3831 -102.9081 257° West 390 449 30,000 -1,020 Descending Denver Center
09:51PM 40.3572 -103.0481 256° West 394 453 29,000 -1,140 Descending Denver Center
09:52PM 40.3308 -103.1842 256° West 388 447 27,800 -1,140 Descending Denver Center
09:53PM 40.3053 -103.3133 255° West 371 427 26,800 -1,020 Descending Denver Center
09:54PM 40.2797 -103.4456 256° West 375 432 25,800 -1,380 Descending Denver Center
09:55PM 40.2544 -103.5772 256° West 375 432 24,100 -2,280 Descending Denver Center
09:56PM 40.2247 -103.7231 255° West 368 423 21,200 -2,520 Descending Denver Center
09:57PM 40.2025 -103.8522 257° West 364 419 19,000 -1,680 Descending Denver Center
09:58PM 40.2097 -103.9683 275° West 325 374 17,800 -1,620 Descending Denver Center
09:59PM 40.2228 -104.0906 278° West 317 365 15,800 -1,980 Descending Denver Center
10:00PM 40.2325 -104.2011 277° West 309 356 13,800 -2,220 Descending Denver Center
10:01PM 40.1933 -104.3014 243° Southwest 317 365 11,400 -1,740 Descending Denver Center
10:02PM 40.1433 -104.3922 234° Southwest 307 353 10,300 -1,200 Descending Denver Center
10:03PM 40.0953 -104.4786 234° Southwest 275 316 9,000 -1,500 Descending Denver Center
10:04PM 40.0531 -104.5542 234° Southwest 261 300 7,300 -1,320 Descending Denver Center
10:04PM 40.0333 -104.6000 241° Southwest 255 293 7,000 -240 Descending Denver TRACON
10:05PM 40.0000 -104.6500 229° Southwest 195 224 7,000 -120 Level Denver TRACON
10:06PM 39.9831 -104.6783 232° Southwest 180 207 6,900 -480 Descending Denver Center
10:07PM 39.9475 -104.6867 190° South 135 155 6,300 -660 Descending Denver Center
10:08PM 39.9089 -104.6864 180° South 127 146 5,600 -480 Descending Denver Center
10:09PM 39.8761 -104.6869 181° South 122 140 5,400 -240 Descending Denver Center
10:11PM 39.8617 -104.6732 North  Level Estimated
10:18PM 39.8617 -104.6732 North  Level Estimated
10:19PM 39.8617 -104.6732 North  Level Estimated